ADDS METAR Data INFO
IDs: Format: Raw Decoded Include TAF

Data at: 0456 UTC 21 Feb 2018

KMCN 201500Z 15007KT 4SM BR OVC006 19/19 A3040 RMK AO2 T01890189
KMCN 201453Z 15008KT 3/4SM BR OVC004 18/18 A3040 RMK AO2 SLP291 T01830183 51012
KMCN 201413Z 15008KT 3/4SM BR OVC003 18/18 A3040 RMK AO2 T01830183
KMCN 201400Z 15006KT 1 1/4SM BR OVC002 18/18 A3040 RMK AO2 T01830183
KMCN 201353Z 15006KT 1/4SM FG OVC002 18/18 A3040 RMK AO2 SLP291 T01780178
KMCN 201306Z 15006KT 1/4SM FG OVC002 18/18 A3039 RMK AO2 T01780178
KMCN 201253Z 14005KT 1/2SM FG VV002 17/17 A3038 RMK AO2 SLP286 T01720172
KMCN 201230Z AUTO 15005KT 1/2SM FG VV003 17/17 A3038 RMK AO2 T01720172
KMCN 201153Z AUTO 14005KT 1SM BR OVC002 17/17 A3036 RMK AO2 SLP279 T01670167 10178 20139 51010
KMCN 201137Z AUTO 14004KT 1 3/4SM BR OVC003 17/17 A3036 RMK AO2 T01670167
KMCN 201110Z AUTO 12003KT 4SM BR OVC004 16/16 A3035 RMK AO2 T01610161
KMCN 201102Z AUTO 12003KT 3SM BR OVC005 16/16 A3035 RMK AO2 T01560156
KMCN 201053Z AUTO 00000KT 2 1/2SM BR OVC005 16/16 A3035 RMK AO2 SLP274 T01560156
KMCN 201038Z AUTO 00000KT 1 1/2SM BR OVC005 14/14 A3035 RMK AO2 T01440144
KMCN 201026Z AUTO 12003KT 3/4SM BR BKN005 15/15 A3034 RMK AO2 T01500150
KMCN 201018Z AUTO 11003KT 2 1/2SM BR BKN006 14/14 A3034 RMK AO2 T01440144
KMCN 201006Z AUTO 12004KT 4SM BR FEW006 14/14 A3033 RMK AO2 T01440144
KMCN 200953Z AUTO 12004KT 5SM BR CLR 14/14 A3033 RMK AO2 SLP268 T01440144
KMCN 200853Z AUTO 12004KT 8SM FEW055 14/14 A3033 RMK AO2 SLP266 T01440144 50000
KMCN 200753Z AUTO 12003KT 10SM CLR 15/14 A3033 RMK AO2 SLP267 T01500144
KMCN 200653Z AUTO 13005KT 10SM FEW060 17/16 A3033 RMK AO2 SLP266 T01720156
KMCN 200553Z AUTO 15004KT 10SM SCT060 18/16 A3033 RMK AO2 SLP266 T01780156 10228 20167 51006
KMCN 200453Z AUTO 14005KT 10SM FEW060 17/15 A3032 RMK AO2 SLP265 T01720150 402670161
KMCN 200353Z AUTO 12003KT 10SM BKN065 17/15 A3032 RMK AO2 SLP263 T01720150
KMCN 200253Z AUTO 00000KT 10SM SCT065 17/14 A3031 RMK AO2 SLP259 T01720139 52010
KMCN 200153Z AUTO 00000KT 10SM CLR 18/14 A3030 RMK AO2 SLP256 T01830139
KMCN 200053Z AUTO 14003KT 10SM CLR 20/14 A3029 RMK AO2 SLP253 T02000144
KMCN 192353Z 16003KT 10SM CLR 23/14 A3028 RMK AO2 SLP249 T02280139 10267 20228 53008
KMCN 192253Z 19005KT 10SM CLR 24/14 A3026 RMK AO2 SLP245 T02390144
KMCN 192153Z 17011KT 10SM SCT050 BKN065 26/15 A3025 RMK AO2 SLP240 T02560150
KMCN 192053Z 17011G18KT 10SM BKN049 BKN060 26/15 A3025 RMK AO2 SLP241 T02610150 56024
KMCN 191953Z 20011G19KT 10SM FEW039 26/16 A3026 RMK AO2 SLP244 T02560161
KMCN 191853Z 19011KT 10SM CLR 25/17 A3029 RMK AO2 SLP252 T02500167
KMCN 191753Z 20008KT 10SM CLR 23/16 A3032 RMK AO2 SLP266 T02330161 10233 20167 58012